sensor_id;sensor_type;location;lat;lon;timestamp;temperature;humidity
9103;DHT22;4587;51.434;6.788;2022-07-10T00:01:20;15.70;99.90
9103;DHT22;4587;51.434;6.788;2022-07-10T00:03:46;15.70;99.90
9103;DHT22;4587;51.434;6.788;2022-07-10T00:06:11;15.70;99.90
9103;DHT22;4587;51.434;6.788;2022-07-10T00:08:38;15.70;99.90
9103;DHT22;4587;51.434;6.788;2022-07-10T00:11:03;15.70;99.90
9103;DHT22;4587;51.434;6.788;2022-07-10T00:13:29;15.60;99.90
9103;DHT22;4587;51.434;6.788;2022-07-10T00:15:54;15.60;99.90
9103;DHT22;4587;51.434;6.788;2022-07-10T00:18:20;15.60;99.90
9103;DHT22;4587;51.434;6.788;2022-07-10T00:20:45;15.50;99.90
9103;DHT22;4587;51.434;6.788;2022-07-10T00:23:11;15.60;99.90
9103;DHT22;4587;51.434;6.788;2022-07-10T00:25:37;15.60;99.90
9103;DHT22;4587;51.434;6.788;2022-07-10T00:28:02;15.60;99.90
9103;DHT22;4587;51.434;6.788;2022-07-10T00:30:29;15.70;99.90
9103;DHT22;4587;51.434;6.788;2022-07-10T00:32:55;15.70;99.90
9103;DHT22;4587;51.434;6.788;2022-07-10T00:35:20;15.70;99.90
9103;DHT22;4587;51.434;6.788;2022-07-10T00:37:46;15.70;99.90
9103;DHT22;4587;51.434;6.788;2022-07-10T00:40:12;15.70;99.90
9103;DHT22;4587;51.434;6.788;2022-07-10T00:42:37;15.70;99.90
9103;DHT22;4587;51.434;6.788;2022-07-10T00:45:03;15.80;99.90
9103;DHT22;4587;51.434;6.788;2022-07-10T00:47:29;15.80;99.90
9103;DHT22;4587;51.434;6.788;2022-07-10T00:49:54;15.90;99.90
9103;DHT22;4587;51.434;6.788;2022-07-10T00:52:20;15.90;99.90
9103;DHT22;4587;51.434;6.788;2022-07-10T00:54:48;15.90;99.90
9103;DHT22;4587;51.434;6.788;2022-07-10T00:57:18;15.90;99.90
9103;DHT22;4587;51.434;6.788;2022-07-10T00:59:44;16.00;99.90
9103;DHT22;4587;51.434;6.788;2022-07-10T01:02:11;16.00;99.90
9103;DHT22;4587;51.434;6.788;2022-07-10T01:04:37;16.00;99.90
9103;DHT22;4587;51.434;6.788;2022-07-10T01:07:02;16.00;99.90
9103;DHT22;4587;51.434;6.788;2022-07-10T01:09:28;16.00;99.90
9103;DHT22;4587;51.434;6.788;2022-07-10T01:11:56;16.10;99.90
9103;DHT22;4587;51.434;6.788;2022-07-10T01:14:22;16.00;99.90
9103;DHT22;4587;51.434;6.788;2022-07-10T01:16:48;16.00;99.90
9103;DHT22;4587;51.434;6.788;2022-07-10T01:19:14;16.10;99.90
9103;DHT22;4587;51.434;6.788;2022-07-10T01:21:40;16.10;99.90
9103;DHT22;4587;51.434;6.788;2022-07-10T01:24:08;16.10;99.90
9103;DHT22;4587;51.434;6.788;2022-07-10T01:26:34;16.10;99.90
9103;DHT22;4587;51.434;6.788;2022-07-10T01:29:03;16.10;99.90
9103;DHT22;4587;51.434;6.788;2022-07-10T01:31:29;16.10;99.90
9103;DHT22;4587;51.434;6.788;2022-07-10T01:33:55;16.00;99.90
9103;DHT22;4587;51.434;6.788;2022-07-10T01:36:21;16.10;99.90
9103;DHT22;4587;51.434;6.788;2022-07-10T01:38:48;16.00;99.90
9103;DHT22;4587;51.434;6.788;2022-07-10T01:41:16;16.10;99.90
9103;DHT22;4587;51.434;6.788;2022-07-10T01:43:41;16.10;99.90
9103;DHT22;4587;51.434;6.788;2022-07-10T01:46:09;16.00;99.90
9103;DHT22;4587;51.434;6.788;2022-07-10T01:48:37;16.00;99.90
9103;DHT22;4587;51.434;6.788;2022-07-10T01:51:03;16.00;99.90
9103;DHT22;4587;51.434;6.788;2022-07-10T01:53:29;16.00;99.90
9103;DHT22;4587;51.434;6.788;2022-07-10T01:55:55;16.00;99.90
9103;DHT22;4587;51.434;6.788;2022-07-10T01:58:20;16.00;99.90
9103;DHT22;4587;51.434;6.788;2022-07-10T02:00:46;16.00;99.90
9103;DHT22;4587;51.434;6.788;2022-07-10T02:03:11;16.00;99.90
9103;DHT22;4587;51.434;6.788;2022-07-10T02:05:55;16.00;99.90
9103;DHT22;4587;51.434;6.788;2022-07-10T02:08:21;16.00;99.90
9103;DHT22;4587;51.434;6.788;2022-07-10T02:10:46;15.90;99.90
9103;DHT22;4587;51.434;6.788;2022-07-10T02:13:12;15.90;99.90
9103;DHT22;4587;51.434;6.788;2022-07-10T02:15:40;15.80;99.90
9103;DHT22;4587;51.434;6.788;2022-07-10T02:18:06;15.80;99.90
9103;DHT22;4587;51.434;6.788;2022-07-10T02:20:32;15.80;99.90
9103;DHT22;4587;51.434;6.788;2022-07-10T02:23:00;15.80;99.90
9103;DHT22;4587;51.434;6.788;2022-07-10T02:25:26;15.80;99.90
9103;DHT22;4587;51.434;6.788;2022-07-10T02:27:51;15.80;99.90
9103;DHT22;4587;51.434;6.788;2022-07-10T02:30:17;15.70;99.90
9103;DHT22;4587;51.434;6.788;2022-07-10T02:32:42;15.70;99.90
9103;DHT22;4587;51.434;6.788;2022-07-10T02:35:08;15.70;99.90
9103;DHT22;4587;51.434;6.788;2022-07-10T02:37:34;15.70;99.90
9103;DHT22;4587;51.434;6.788;2022-07-10T02:39:59;15.70;99.90
9103;DHT22;4587;51.434;6.788;2022-07-10T02:42:25;15.60;99.90
9103;DHT22;4587;51.434;6.788;2022-07-10T02:44:50;15.60;99.90
9103;DHT22;4587;51.434;6.788;2022-07-10T02:47:16;15.60;99.90
9103;DHT22;4587;51.434;6.788;2022-07-10T02:49:41;15.50;99.90
9103;DHT22;4587;51.434;6.788;2022-07-10T02:52:08;15.50;99.90
9103;DHT22;4587;51.434;6.788;2022-07-10T02:54:34;15.50;99.90
9103;DHT22;4587;51.434;6.788;2022-07-10T02:57:00;15.50;99.90
9103;DHT22;4587;51.434;6.788;2022-07-10T02:59:25;15.40;99.90
9103;DHT22;4587;51.434;6.788;2022-07-10T03:01:52;15.40;99.90
9103;DHT22;4587;51.434;6.788;2022-07-10T03:04:17;15.40;99.90
9103;DHT22;4587;51.434;6.788;2022-07-10T03:06:43;15.40;99.90
9103;DHT22;4587;51.434;6.788;2022-07-10T03:09:08;15.40;99.90
9103;DHT22;4587;51.434;6.788;2022-07-10T03:11:34;15.30;99.90
9103;DHT22;4587;51.434;6.788;2022-07-10T03:14:00;15.30;99.90
9103;DHT22;4587;51.434;6.788;2022-07-10T03:16:25;15.30;99.90
9103;DHT22;4587;51.434;6.788;2022-07-10T03:18:51;15.30;99.90
9103;DHT22;4587;51.434;6.788;2022-07-10T03:21:16;15.20;99.90
9103;DHT22;4587;51.434;6.788;2022-07-10T03:23:42;15.20;99.90
9103;DHT22;4587;51.434;6.788;2022-07-10T03:26:07;15.10;99.90
9103;DHT22;4587;51.434;6.788;2022-07-10T03:28:33;15.10;99.90
9103;DHT22;4587;51.434;6.788;2022-07-10T03:30:59;15.10;99.90
9103;DHT22;4587;51.434;6.788;2022-07-10T03:33:24;15.10;99.90
9103;DHT22;4587;51.434;6.788;2022-07-10T03:35:50;15.10;99.90
9103;DHT22;4587;51.434;6.788;2022-07-10T03:38:16;15.10;99.90
9103;DHT22;4587;51.434;6.788;2022-07-10T03:40:41;15.10;99.90
9103;DHT22;4587;51.434;6.788;2022-07-10T03:43:07;15.10;99.90
9103;DHT22;4587;51.434;6.788;2022-07-10T03:45:33;15.10;99.90
9103;DHT22;4587;51.434;6.788;2022-07-10T03:47:59;15.10;99.90
9103;DHT22;4587;51.434;6.788;2022-07-10T03:50:24;15.10;99.90
9103;DHT22;4587;51.434;6.788;2022-07-10T03:52:50;15.00;99.90
9103;DHT22;4587;51.434;6.788;2022-07-10T03:55:16;15.00;99.90
9103;DHT22;4587;51.434;6.788;2022-07-10T03:57:41;15.00;99.90
9103;DHT22;4587;51.434;6.788;2022-07-10T04:00:24;15.00;99.90
9103;DHT22;4587;51.434;6.788;2022-07-10T04:03:03;15.00;99.90
9103;DHT22;4587;51.434;6.788;2022-07-10T04:05:29;15.00;99.90
9103;DHT22;4587;51.434;6.788;2022-07-10T04:07:55;15.00;99.90
9103;DHT22;4587;51.434;6.788;2022-07-10T04:10:25;15.00;99.90
9103;DHT22;4587;51.434;6.788;2022-07-10T04:12:51;15.00;99.90
9103;DHT22;4587;51.434;6.788;2022-07-10T04:15:18;15.00;99.90
9103;DHT22;4587;51.434;6.788;2022-07-10T04:17:45;15.00;99.90
9103;DHT22;4587;51.434;6.788;2022-07-10T04:20:10;15.00;99.90
9103;DHT22;4587;51.434;6.788;2022-07-10T04:22:36;15.00;99.90
9103;DHT22;4587;51.434;6.788;2022-07-10T04:25:02;15.00;99.90
9103;DHT22;4587;51.434;6.788;2022-07-10T04:27:28;15.10;99.90
9103;DHT22;4587;51.434;6.788;2022-07-10T04:29:54;15.10;99.90
9103;DHT22;4587;51.434;6.788;2022-07-10T04:32:20;15.10;99.90
9103;DHT22;4587;51.434;6.788;2022-07-10T04:34:46;15.10;99.90
9103;DHT22;4587;51.434;6.788;2022-07-10T04:37:11;15.20;99.90
9103;DHT22;4587;51.434;6.788;2022-07-10T04:39:38;15.20;99.90
9103;DHT22;4587;51.434;6.788;2022-07-10T04:42:08;15.30;99.90
9103;DHT22;4587;51.434;6.788;2022-07-10T04:44:35;15.30;99.90
9103;DHT22;4587;51.434;6.788;2022-07-10T04:47:02;15.30;99.90
9103;DHT22;4587;51.434;6.788;2022-07-10T04:49:28;15.40;99.90
9103;DHT22;4587;51.434;6.788;2022-07-10T04:51:54;15.40;99.90
9103;DHT22;4587;51.434;6.788;2022-07-10T04:54:20;15.40;99.90
9103;DHT22;4587;51.434;6.788;2022-07-10T04:56:45;15.50;99.90
9103;DHT22;4587;51.434;6.788;2022-07-10T04:59:11;15.60;99.90
9103;DHT22;4587;51.434;6.788;2022-07-10T05:01:37;15.80;99.90
9103;DHT22;4587;51.434;6.788;2022-07-10T05:04:03;16.00;99.90
9103;DHT22;4587;51.434;6.788;2022-07-10T05:06:29;16.20;99.90
9103;DHT22;4587;51.434;6.788;2022-07-10T05:08:54;16.40;99.90
9103;DHT22;4587;51.434;6.788;2022-07-10T05:11:21;16.40;99.90
9103;DHT22;4587;51.434;6.788;2022-07-10T05:13:47;16.50;99.90
9103;DHT22;4587;51.434;6.788;2022-07-10T05:16:14;16.40;99.90
9103;DHT22;4587;51.434;6.788;2022-07-10T05:18:40;16.40;99.90
9103;DHT22;4587;51.434;6.788;2022-07-10T05:21:06;16.50;99.90
9103;DHT22;4587;51.434;6.788;2022-07-10T05:23:32;16.70;99.90
9103;DHT22;4587;51.434;6.788;2022-07-10T05:25:57;16.70;99.90
9103;DHT22;4587;51.434;6.788;2022-07-10T05:28:23;16.70;99.90
9103;DHT22;4587;51.434;6.788;2022-07-10T05:30:48;16.70;99.90
9103;DHT22;4587;51.434;6.788;2022-07-10T05:33:15;17.00;99.90
9103;DHT22;4587;51.434;6.788;2022-07-10T05:35:41;17.70;99.90
9103;DHT22;4587;51.434;6.788;2022-07-10T05:38:07;17.80;99.90
9103;DHT22;4587;51.434;6.788;2022-07-10T05:40:32;17.80;99.90
9103;DHT22;4587;51.434;6.788;2022-07-10T05:42:58;17.60;99.90
9103;DHT22;4587;51.434;6.788;2022-07-10T05:45:24;17.50;99.90
9103;DHT22;4587;51.434;6.788;2022-07-10T05:47:50;17.30;99.90
9103;DHT22;4587;51.434;6.788;2022-07-10T05:50:15;17.10;99.90
9103;DHT22;4587;51.434;6.788;2022-07-10T05:52:41;17.00;99.90
9103;DHT22;4587;51.434;6.788;2022-07-10T05:55:07;16.80;99.90
9103;DHT22;4587;51.434;6.788;2022-07-10T05:57:33;16.80;99.90
9103;DHT22;4587;51.434;6.788;2022-07-10T06:00:00;16.70;99.90
9103;DHT22;4587;51.434;6.788;2022-07-10T06:02:25;16.70;99.90
9103;DHT22;4587;51.434;6.788;2022-07-10T06:04:51;16.60;99.90
9103;DHT22;4587;51.434;6.788;2022-07-10T06:07:17;16.70;99.90
9103;DHT22;4587;51.434;6.788;2022-07-10T06:09:42;16.60;99.90
9103;DHT22;4587;51.434;6.788;2022-07-10T06:12:08;16.60;99.90
9103;DHT22;4587;51.434;6.788;2022-07-10T06:14:34;16.60;99.90
9103;DHT22;4587;51.434;6.788;2022-07-10T06:17:00;16.60;99.90
9103;DHT22;4587;51.434;6.788;2022-07-10T06:19:25;16.60;99.90
9103;DHT22;4587;51.434;6.788;2022-07-10T06:21:51;16.60;99.90
9103;DHT22;4587;51.434;6.788;2022-07-10T06:24:37;16.60;99.90
9103;DHT22;4587;51.434;6.788;2022-07-10T06:27:02;16.60;99.90
9103;DHT22;4587;51.434;6.788;2022-07-10T06:29:28;16.60;99.90
9103;DHT22;4587;51.434;6.788;2022-07-10T06:31:54;16.60;99.90
9103;DHT22;4587;51.434;6.788;2022-07-10T06:34:19;16.60;99.90
9103;DHT22;4587;51.434;6.788;2022-07-10T06:36:45;16.60;99.90
9103;DHT22;4587;51.434;6.788;2022-07-10T06:39:11;16.60;99.90
9103;DHT22;4587;51.434;6.788;2022-07-10T06:41:37;16.60;99.90
9103;DHT22;4587;51.434;6.788;2022-07-10T06:44:04;16.60;99.90
9103;DHT22;4587;51.434;6.788;2022-07-10T06:46:30;16.60;99.90
9103;DHT22;4587;51.434;6.788;2022-07-10T06:48:55;16.50;99.90
9103;DHT22;4587;51.434;6.788;2022-07-10T06:51:21;16.50;99.90
9103;DHT22;4587;51.434;6.788;2022-07-10T06:53:46;16.50;99.90
9103;DHT22;4587;51.434;6.788;2022-07-10T06:56:12;16.60;99.90
9103;DHT22;4587;51.434;6.788;2022-07-10T06:58:40;16.70;99.90
9103;DHT22;4587;51.434;6.788;2022-07-10T07:01:05;16.70;99.90
9103;DHT22;4587;51.434;6.788;2022-07-10T07:03:31;16.70;99.90
9103;DHT22;4587;51.434;6.788;2022-07-10T07:05:56;16.70;99.90
9103;DHT22;4587;51.434;6.788;2022-07-10T07:08:22;16.70;99.90
9103;DHT22;4587;51.434;6.788;2022-07-10T07:10:48;16.70;99.90
9103;DHT22;4587;51.434;6.788;2022-07-10T07:13:13;16.80;99.90
9103;DHT22;4587;51.434;6.788;2022-07-10T07:15:39;16.70;99.90
9103;DHT22;4587;51.434;6.788;2022-07-10T07:18:08;16.70;99.90
9103;DHT22;4587;51.434;6.788;2022-07-10T07:20:36;16.70;99.90
9103;DHT22;4587;51.434;6.788;2022-07-10T07:23:22;16.50;99.90
9103;DHT22;4587;51.434;6.788;2022-07-10T07:25:47;16.50;99.90
9103;DHT22;4587;51.434;6.788;2022-07-10T07:28:14;16.50;99.90
9103;DHT22;4587;51.434;6.788;2022-07-10T07:30:48;16.50;99.90
9103;DHT22;4587;51.434;6.788;2022-07-10T07:33:14;16.50;99.90
9103;DHT22;4587;51.434;6.788;2022-07-10T07:35:39;16.50;99.90
9103;DHT22;4587;51.434;6.788;2022-07-10T07:38:05;16.50;99.90
9103;DHT22;4587;51.434;6.788;2022-07-10T07:40:31;16.50;99.90
9103;DHT22;4587;51.434;6.788;2022-07-10T07:42:57;16.50;99.90
9103;DHT22;4587;51.434;6.788;2022-07-10T07:45:24;16.50;99.90
9103;DHT22;4587;51.434;6.788;2022-07-10T07:47:55;16.40;99.90
9103;DHT22;4587;51.434;6.788;2022-07-10T07:50:23;16.40;99.90
9103;DHT22;4587;51.434;6.788;2022-07-10T07:52:49;16.40;99.90
9103;DHT22;4587;51.434;6.788;2022-07-10T07:55:16;16.40;99.90
9103;DHT22;4587;51.434;6.788;2022-07-10T07:57:43;16.40;99.90
9103;DHT22;4587;51.434;6.788;2022-07-10T08:00:10;16.40;99.90
9103;DHT22;4587;51.434;6.788;2022-07-10T08:02:36;16.30;99.90
9103;DHT22;4587;51.434;6.788;2022-07-10T08:05:02;16.30;99.90
9103;DHT22;4587;51.434;6.788;2022-07-10T08:07:42;16.20;99.90
9103;DHT22;4587;51.434;6.788;2022-07-10T08:10:10;16.30;99.90
9103;DHT22;4587;51.434;6.788;2022-07-10T08:12:36;16.20;99.90
9103;DHT22;4587;51.434;6.788;2022-07-10T08:15:08;16.20;99.90
9103;DHT22;4587;51.434;6.788;2022-07-10T08:17:33;16.20;99.90
9103;DHT22;4587;51.434;6.788;2022-07-10T08:19:59;16.10;99.90
9103;DHT22;4587;51.434;6.788;2022-07-10T08:22:25;16.10;99.90
9103;DHT22;4587;51.434;6.788;2022-07-10T08:24:50;16.10;99.90
9103;DHT22;4587;51.434;6.788;2022-07-10T08:27:16;16.10;99.90
9103;DHT22;4587;51.434;6.788;2022-07-10T08:29:41;16.20;99.90
9103;DHT22;4587;51.434;6.788;2022-07-10T08:32:07;16.30;99.90
9103;DHT22;4587;51.434;6.788;2022-07-10T08:34:35;16.40;99.90
9103;DHT22;4587;51.434;6.788;2022-07-10T08:37:01;16.60;99.90
9103;DHT22;4587;51.434;6.788;2022-07-10T08:39:26;16.80;99.90
9103;DHT22;4587;51.434;6.788;2022-07-10T08:41:52;16.90;99.90
9103;DHT22;4587;51.434;6.788;2022-07-10T08:44:18;17.00;99.90
9103;DHT22;4587;51.434;6.788;2022-07-10T08:46:44;17.00;99.90
9103;DHT22;4587;51.434;6.788;2022-07-10T08:49:11;16.90;99.90
9103;DHT22;4587;51.434;6.788;2022-07-10T08:51:41;16.90;99.90
9103;DHT22;4587;51.434;6.788;2022-07-10T08:54:08;16.80;99.90
9103;DHT22;4587;51.434;6.788;2022-07-10T08:56:34;16.70;99.90
9103;DHT22;4587;51.434;6.788;2022-07-10T08:59:03;16.70;99.90
9103;DHT22;4587;51.434;6.788;2022-07-10T09:01:30;16.60;99.90
9103;DHT22;4587;51.434;6.788;2022-07-10T09:03:56;16.70;99.90
9103;DHT22;4587;51.434;6.788;2022-07-10T09:06:21;16.80;99.90
9103;DHT22;4587;51.434;6.788;2022-07-10T09:11:25;16.80;99.90
9103;DHT22;4587;51.434;6.788;2022-07-10T09:13:56;16.90;99.90
9103;DHT22;4587;51.434;6.788;2022-07-10T09:16:29;16.90;99.90
9103;DHT22;4587;51.434;6.788;2022-07-10T09:18:56;17.00;99.90
9103;DHT22;4587;51.434;6.788;2022-07-10T09:21:22;16.90;99.90
9103;DHT22;4587;51.434;6.788;2022-07-10T09:23:48;17.00;99.90
9103;DHT22;4587;51.434;6.788;2022-07-10T09:26:15;17.10;99.90
9103;DHT22;4587;51.434;6.788;2022-07-10T09:28:41;17.10;99.90
9103;DHT22;4587;51.434;6.788;2022-07-10T09:31:06;17.10;99.90
9103;DHT22;4587;51.434;6.788;2022-07-10T09:33:32;17.10;99.90
9103;DHT22;4587;51.434;6.788;2022-07-10T09:36:03;17.10;99.90
9103;DHT22;4587;51.434;6.788;2022-07-10T09:41:22;17.00;99.90
9103;DHT22;4587;51.434;6.788;2022-07-10T09:43:59;17.00;99.90
9103;DHT22;4587;51.434;6.788;2022-07-10T09:46:37;17.20;99.90
9103;DHT22;4587;51.434;6.788;2022-07-10T09:49:10;17.40;99.90
9103;DHT22;4587;51.434;6.788;2022-07-10T09:54:05;17.70;99.90
9103;DHT22;4587;51.434;6.788;2022-07-10T09:56:40;17.80;99.90
9103;DHT22;4587;51.434;6.788;2022-07-10T09:59:12;17.80;99.90
9103;DHT22;4587;51.434;6.788;2022-07-10T10:02:00;17.90;99.90
9103;DHT22;4587;51.434;6.788;2022-07-10T10:04:28;18.00;99.90
9103;DHT22;4587;51.434;6.788;2022-07-10T10:06:59;18.10;99.90
9103;DHT22;4587;51.434;6.788;2022-07-10T10:09:26;18.10;99.90
9103;DHT22;4587;51.434;6.788;2022-07-10T10:12:02;18.10;99.90
9103;DHT22;4587;51.434;6.788;2022-07-10T10:14:30;18.00;99.90
9103;DHT22;4587;51.434;6.788;2022-07-10T10:16:57;17.90;99.90
9103;DHT22;4587;51.434;6.788;2022-07-10T10:19:24;17.90;99.90
9103;DHT22;4587;51.434;6.788;2022-07-10T10:22:09;17.90;99.90
9103;DHT22;4587;51.434;6.788;2022-07-10T10:24:36;17.80;99.90
9103;DHT22;4587;51.434;6.788;2022-07-10T10:27:04;17.90;99.90
9103;DHT22;4587;51.434;6.788;2022-07-10T10:29:31;18.00;99.90
9103;DHT22;4587;51.434;6.788;2022-07-10T10:31:57;18.10;99.90
9103;DHT22;4587;51.434;6.788;2022-07-10T10:34:44;18.10;99.90
9103;DHT22;4587;51.434;6.788;2022-07-10T10:37:39;18.20;99.90
9103;DHT22;4587;51.434;6.788;2022-07-10T10:40:09;18.30;99.90
9103;DHT22;4587;51.434;6.788;2022-07-10T10:42:40;18.40;99.90
9103;DHT22;4587;51.434;6.788;2022-07-10T10:48:05;18.50;99.90
9103;DHT22;4587;51.434;6.788;2022-07-10T10:53:18;18.80;99.90
9103;DHT22;4587;51.434;6.788;2022-07-10T10:58:38;19.00;99.90
9103;DHT22;4587;51.434;6.788;2022-07-10T11:01:25;18.90;99.90
9103;DHT22;4587;51.434;6.788;2022-07-10T11:12:08;19.10;99.90
9103;DHT22;4587;51.434;6.788;2022-07-10T11:14:45;19.10;99.90
9103;DHT22;4587;51.434;6.788;2022-07-10T11:17:11;18.90;99.90
9103;DHT22;4587;51.434;6.788;2022-07-10T11:19:38;18.90;99.90
9103;DHT22;4587;51.434;6.788;2022-07-10T11:28:21;19.50;99.90
9103;DHT22;4587;51.434;6.788;2022-07-10T11:30:49;19.80;99.90
9103;DHT22;4587;51.434;6.788;2022-07-10T11:33:15;19.90;99.90
9103;DHT22;4587;51.434;6.788;2022-07-10T11:35:44;20.10;99.90
9103;DHT22;4587;51.434;6.788;2022-07-10T11:38:10;20.20;99.90
9103;DHT22;4587;51.434;6.788;2022-07-10T11:40:36;20.40;99.90
9103;DHT22;4587;51.434;6.788;2022-07-10T11:43:03;20.50;99.90
9103;DHT22;4587;51.434;6.788;2022-07-10T11:45:32;20.40;99.90
9103;DHT22;4587;51.434;6.788;2022-07-10T11:47:59;20.30;99.90
9103;DHT22;4587;51.434;6.788;2022-07-10T11:50:26;20.20;99.90
9103;DHT22;4587;51.434;6.788;2022-07-10T11:52:53;20.10;99.90
9103;DHT22;4587;51.434;6.788;2022-07-10T11:55:22;20.00;99.90
9103;DHT22;4587;51.434;6.788;2022-07-10T11:57:49;19.90;99.90
9103;DHT22;4587;51.434;6.788;2022-07-10T12:02:53;19.50;99.90
9103;DHT22;4587;51.434;6.788;2022-07-10T12:05:38;19.40;99.90
9103;DHT22;4587;51.434;6.788;2022-07-10T12:08:04;19.30;99.90
9103;DHT22;4587;51.434;6.788;2022-07-10T12:10:33;19.20;99.90
9103;DHT22;4587;51.434;6.788;2022-07-10T12:13:10;19.20;99.90
9103;DHT22;4587;51.434;6.788;2022-07-10T12:15:43;19.10;99.90
9103;DHT22;4587;51.434;6.788;2022-07-10T12:18:18;19.00;99.90
9103;DHT22;4587;51.434;6.788;2022-07-10T12:20:46;18.80;99.90
9103;DHT22;4587;51.434;6.788;2022-07-10T12:23:16;18.70;99.90
9103;DHT22;4587;51.434;6.788;2022-07-10T12:25:43;18.50;99.90
9103;DHT22;4587;51.434;6.788;2022-07-10T12:28:09;18.40;99.90
9103;DHT22;4587;51.434;6.788;2022-07-10T12:30:45;18.30;99.90
9103;DHT22;4587;51.434;6.788;2022-07-10T12:33:12;18.30;99.90
9103;DHT22;4587;51.434;6.788;2022-07-10T12:35:57;18.40;99.90
9103;DHT22;4587;51.434;6.788;2022-07-10T12:38:28;18.50;99.90
9103;DHT22;4587;51.434;6.788;2022-07-10T12:41:07;18.90;99.90
9103;DHT22;4587;51.434;6.788;2022-07-10T12:43:33;19.30;99.90
9103;DHT22;4587;51.434;6.788;2022-07-10T12:48:41;20.00;99.90
9103;DHT22;4587;51.434;6.788;2022-07-10T12:51:23;20.20;99.90
9103;DHT22;4587;51.434;6.788;2022-07-10T12:53:49;20.40;99.90
9103;DHT22;4587;51.434;6.788;2022-07-10T12:56:37;20.40;99.90
9103;DHT22;4587;51.434;6.788;2022-07-10T12:59:13;20.20;99.90
9103;DHT22;4587;51.434;6.788;2022-07-10T13:01:43;20.10;99.90
9103;DHT22;4587;51.434;6.788;2022-07-10T13:04:10;19.90;99.90
9103;DHT22;4587;51.434;6.788;2022-07-10T13:06:36;20.00;99.90
9103;DHT22;4587;51.434;6.788;2022-07-10T13:09:17;20.30;99.90
9103;DHT22;4587;51.434;6.788;2022-07-10T13:11:43;20.60;99.90
9103;DHT22;4587;51.434;6.788;2022-07-10T13:14:08;20.90;99.90
9103;DHT22;4587;51.434;6.788;2022-07-10T13:16:34;21.20;99.90
9103;DHT22;4587;51.434;6.788;2022-07-10T13:19:00;21.40;99.90
9103;DHT22;4587;51.434;6.788;2022-07-10T13:21:26;21.50;99.90
9103;DHT22;4587;51.434;6.788;2022-07-10T13:23:52;21.50;99.90
9103;DHT22;4587;51.434;6.788;2022-07-10T13:26:17;21.40;99.90
9103;DHT22;4587;51.434;6.788;2022-07-10T13:28:43;21.40;99.90
9103;DHT22;4587;51.434;6.788;2022-07-10T13:31:09;21.40;99.90
9103;DHT22;4587;51.434;6.788;2022-07-10T13:33:35;21.40;99.90
9103;DHT22;4587;51.434;6.788;2022-07-10T13:36:02;21.50;99.90
9103;DHT22;4587;51.434;6.788;2022-07-10T13:38:28;21.40;99.90
9103;DHT22;4587;51.434;6.788;2022-07-10T13:40:54;21.40;99.90
9103;DHT22;4587;51.434;6.788;2022-07-10T13:43:20;21.40;99.90
9103;DHT22;4587;51.434;6.788;2022-07-10T13:45:47;21.30;99.90
9103;DHT22;4587;51.434;6.788;2022-07-10T13:48:14;21.30;99.90
9103;DHT22;4587;51.434;6.788;2022-07-10T13:50:44;21.20;99.90
9103;DHT22;4587;51.434;6.788;2022-07-10T13:53:12;21.10;99.90
9103;DHT22;4587;51.434;6.788;2022-07-10T13:55:38;21.00;99.90
9103;DHT22;4587;51.434;6.788;2022-07-10T13:58:04;20.80;99.90
9103;DHT22;4587;51.434;6.788;2022-07-10T14:00:30;20.70;99.90
9103;DHT22;4587;51.434;6.788;2022-07-10T14:02:56;20.70;99.90
9103;DHT22;4587;51.434;6.788;2022-07-10T14:05:23;20.60;99.90
9103;DHT22;4587;51.434;6.788;2022-07-10T14:07:49;20.60;99.90
9103;DHT22;4587;51.434;6.788;2022-07-10T14:10:15;20.50;99.90
9103;DHT22;4587;51.434;6.788;2022-07-10T14:12:41;20.40;99.90
9103;DHT22;4587;51.434;6.788;2022-07-10T14:15:07;20.40;99.90
9103;DHT22;4587;51.434;6.788;2022-07-10T14:17:33;20.30;99.90
9103;DHT22;4587;51.434;6.788;2022-07-10T14:19:58;20.30;99.90
9103;DHT22;4587;51.434;6.788;2022-07-10T14:22:24;20.30;99.90
9103;DHT22;4587;51.434;6.788;2022-07-10T14:24:50;20.40;99.90
9103;DHT22;4587;51.434;6.788;2022-07-10T14:27:17;20.40;99.90
9103;DHT22;4587;51.434;6.788;2022-07-10T14:29:42;20.50;99.90
9103;DHT22;4587;51.434;6.788;2022-07-10T14:32:08;20.50;99.90
9103;DHT22;4587;51.434;6.788;2022-07-10T14:34:34;20.50;99.90
9103;DHT22;4587;51.434;6.788;2022-07-10T14:37:00;20.40;99.90
9103;DHT22;4587;51.434;6.788;2022-07-10T14:39:26;20.40;99.90
9103;DHT22;4587;51.434;6.788;2022-07-10T14:41:52;20.40;99.90
9103;DHT22;4587;51.434;6.788;2022-07-10T14:44:17;20.40;99.90
9103;DHT22;4587;51.434;6.788;2022-07-10T14:46:43;20.50;99.90
9103;DHT22;4587;51.434;6.788;2022-07-10T14:49:09;20.60;99.90
9103;DHT22;4587;51.434;6.788;2022-07-10T14:51:34;20.60;99.90
9103;DHT22;4587;51.434;6.788;2022-07-10T14:54:01;20.70;99.90
9103;DHT22;4587;51.434;6.788;2022-07-10T14:56:27;20.90;99.90
9103;DHT22;4587;51.434;6.788;2022-07-10T14:58:53;21.10;99.90
9103;DHT22;4587;51.434;6.788;2022-07-10T15:01:18;21.30;99.90
9103;DHT22;4587;51.434;6.788;2022-07-10T15:03:44;21.50;99.90
9103;DHT22;4587;51.434;6.788;2022-07-10T15:06:10;21.60;99.90
9103;DHT22;4587;51.434;6.788;2022-07-10T15:08:36;21.80;99.90
9103;DHT22;4587;51.434;6.788;2022-07-10T15:11:02;21.70;99.90
9103;DHT22;4587;51.434;6.788;2022-07-10T15:13:28;21.70;99.90
9103;DHT22;4587;51.434;6.788;2022-07-10T15:15:54;21.60;99.90
9103;DHT22;4587;51.434;6.788;2022-07-10T15:18:20;21.50;99.90
9103;DHT22;4587;51.434;6.788;2022-07-10T15:20:46;21.50;99.90
9103;DHT22;4587;51.434;6.788;2022-07-10T15:23:12;21.40;99.90
9103;DHT22;4587;51.434;6.788;2022-07-10T15:25:39;21.40;99.90
9103;DHT22;4587;51.434;6.788;2022-07-10T15:28:07;21.40;99.90
9103;DHT22;4587;51.434;6.788;2022-07-10T15:30:33;21.40;99.90
9103;DHT22;4587;51.434;6.788;2022-07-10T15:32:59;21.40;99.90
9103;DHT22;4587;51.434;6.788;2022-07-10T15:35:25;21.30;99.90
9103;DHT22;4587;51.434;6.788;2022-07-10T15:37:51;21.40;99.90
9103;DHT22;4587;51.434;6.788;2022-07-10T15:40:16;21.40;99.90
9103;DHT22;4587;51.434;6.788;2022-07-10T15:42:42;21.50;99.90
9103;DHT22;4587;51.434;6.788;2022-07-10T15:45:08;21.50;99.90
9103;DHT22;4587;51.434;6.788;2022-07-10T15:47:34;21.60;99.90
9103;DHT22;4587;51.434;6.788;2022-07-10T15:49:59;21.70;99.90
9103;DHT22;4587;51.434;6.788;2022-07-10T15:52:25;21.60;99.90
9103;DHT22;4587;51.434;6.788;2022-07-10T15:54:50;21.50;99.90
9103;DHT22;4587;51.434;6.788;2022-07-10T15:57:16;21.50;99.90
9103;DHT22;4587;51.434;6.788;2022-07-10T15:59:42;21.40;99.90
9103;DHT22;4587;51.434;6.788;2022-07-10T16:02:08;21.40;99.90
9103;DHT22;4587;51.434;6.788;2022-07-10T16:04:34;21.30;99.90
9103;DHT22;4587;51.434;6.788;2022-07-10T16:06:59;21.20;99.90
9103;DHT22;4587;51.434;6.788;2022-07-10T16:09:25;21.10;99.90
9103;DHT22;4587;51.434;6.788;2022-07-10T16:11:51;21.00;99.90
9103;DHT22;4587;51.434;6.788;2022-07-10T16:14:16;20.90;99.90
9103;DHT22;4587;51.434;6.788;2022-07-10T16:16:43;20.80;99.90
9103;DHT22;4587;51.434;6.788;2022-07-10T16:19:09;20.80;99.90
9103;DHT22;4587;51.434;6.788;2022-07-10T16:21:35;20.70;99.90
9103;DHT22;4587;51.434;6.788;2022-07-10T16:24:02;20.70;99.90
9103;DHT22;4587;51.434;6.788;2022-07-10T16:26:28;20.60;99.90
9103;DHT22;4587;51.434;6.788;2022-07-10T16:28:54;20.70;99.90
9103;DHT22;4587;51.434;6.788;2022-07-10T16:31:20;20.60;99.90
9103;DHT22;4587;51.434;6.788;2022-07-10T16:33:45;20.60;99.90
9103;DHT22;4587;51.434;6.788;2022-07-10T16:36:12;20.60;99.90
9103;DHT22;4587;51.434;6.788;2022-07-10T16:38:38;20.60;99.90